Little Canada, Minnesota
Current Conditions -  °F | °C
As of 1:53 AM on Friday 19 Dec 2014 (Local Time) from KSTP Reporting Station
Overcast Overcast  
Wind Chill: 13°   Ceiling: 8500
Heat Index: 22°   Visibility: 10mi
Dew Point: 16°   Wind: 7mph
Humidity: 78%   Direction: 160°SSE
Pressure: 30.29"   Gusts: NA
Location:  44.9981°N, 93.0983°W
Report Text: KSTP 190753Z AUTO 16006KT 10SM OVC085 M06/M09 A3029 RMK AO2 SLP268 T10561089
Loading
Personal Weather Stations






























Interactive Weather Map New forecast layout! Learn more

10-Day Weather Forecast

Advertisements
Track Severe Weather on mobile